Main page
METAR-TAF:

METAR-TAF

Airports :

Base Aérea de Armilla

Granada, Spain

latitude: 37-08N, longitude: 003-38-08W, elevation: 700 m

Current weather observation

The report was made 7 hours and 11 minutes ago, at 14:00 UTC
Wind 5 kt from the West/Northwest
Temperature 16°C
Humidity 29%
Pressure 1026 hPa
Visibility 10 km or more
no clouds below 1500 m and no cumulonimbus

METAR: LEGA 101400Z 30005KT CAVOK 16/M02 Q1026

Time: 22:11 (21:11 UTC)

Forecast

The report was made 7 hours and 11 minutes ago, at 14:00 UTC
Forecast valid from 10 at 15 UTC to 10 at 24 UTC
Wind 3 kt from variable directions
Visibility 10 km or more
no clouds below 1500 m and no cumulonimbus

TAF: LEGA 101400Z 1015/1024 VRB03KT CAVOK

Weather observations and forecasts of more than 4000 airports (METAR and TAF reports).

The available stations are represented by yellow and red dots on the map.

Hover mouse over dot to see the name of the station.

Then click to see weather observations and forecasts.

To change the map : click on the green buttons with a black cross to zoom in, on the green button with a dash to zoom out, or on the green arrows for adjacent maps.


METAR-TAF: